Time;durP1;ratioP1;P1;durP2;ratioP2;P2;SDS_P1;SDS_P2;PMS_P1;PMS_P2;Temp;Humidity;BMP_temperature;BMP_pressure;BME280_temperature;BME280_humidity;BME280_pressure;Samples;Min_cycle;Max_cycle;Signal;HPM_P1;HPM_P2
2022/07/07 00:01:22;;;;;;;4.10;3.00;;;;;;;;;;5053638;28;20224;-66
2022/07/07 00:03:48;;;;;;;3.37;2.70;;;;;;;;;;5052004;28;20186;-66
2022/07/07 00:06:14;;;;;;;5.87;2.90;;;;;;;;;;5053280;28;20185;-64
2022/07/07 00:08:40;;;;;;;3.63;2.53;;;;;;;;;;5052092;28;20556;-68
2022/07/07 00:11:06;;;;;;;3.70;2.77;;;;;;;;;;5052057;28;20222;-67
2022/07/07 00:13:32;;;;;;;3.10;2.30;;;;;;;;;;5052238;28;20190;-67
2022/07/07 00:15:58;;;;;;;5.97;2.60;;;;;;;;;;5053703;28;20193;-67
2022/07/07 00:18:24;;;;;;;2.70;2.47;;;;;;;;;;5053861;28;20209;-67
2022/07/07 00:20:50;;;;;;;5.47;2.60;;;;;;;;;;5057294;28;20554;-67
2022/07/07 00:23:16;;;;;;;3.90;2.67;;;;;;;;;;5057292;28;20281;-67
2022/07/07 00:25:42;;;;;;;3.03;2.10;;;;;;;;;;5057832;28;20175;-66
2022/07/07 00:28:08;;;;;;;2.37;2.20;;;;;;;;;;5057333;28;20183;-67
2022/07/07 00:30:34;;;;;;;3.47;2.40;;;;;;;;;;5057367;28;20183;-67
2022/07/07 00:33:00;;;;;;;2.50;2.30;;;;;;;;;;5057129;28;20625;-67
2022/07/07 00:35:25;;;;;;;2.67;2.33;;;;;;;;;;5055665;28;20650;-68
2022/07/07 00:37:52;;;;;;;2.37;2.13;;;;;;;;;;5057088;28;20555;-63
2022/07/07 00:40:18;;;;;;;2.20;2.00;;;;;;;;;;5057358;28;20658;-66
2022/07/07 00:42:44;;;;;;;2.77;2.27;;;;;;;;;;5055447;28;20751;-65
2022/07/07 00:45:10;;;;;;;3.33;2.47;;;;;;;;;;5057323;28;20553;-66
2022/07/07 00:47:37;;;;;;;3.67;2.20;;;;;;;;;;5055785;28;20197;-63
2022/07/07 00:50:03;;;;;;;2.40;2.20;;;;;;;;;;5057063;28;20190;-63
2022/07/07 00:52:29;;;;;;;4.13;2.80;;;;;;;;;;5056692;28;20693;-67
2022/07/07 00:54:59;;;;;;;4.00;2.30;;;;;;;;;;5055211;28;20183;-66
2022/07/07 00:57:25;;;;;;;3.50;2.10;;;;;;;;;;5055116;28;20654;-66
2022/07/07 00:59:52;;;;;;;2.93;2.37;;;;;;;;;;5056771;28;20181;-67
2022/07/07 01:02:18;;;;;;;3.20;2.13;;;;;;;;;;5056428;28;20267;-66
2022/07/07 01:04:44;;;;;;;3.50;2.20;;;;;;;;;;5055151;28;20182;-65
2022/07/07 01:07:10;;;;;;;2.50;2.07;;;;;;;;;;5056444;28;20552;-65
2022/07/07 01:09:37;;;;;;;3.23;2.50;;;;;;;;;;5055110;28;20185;-66
2022/07/07 01:12:04;;;;;;;6.63;2.63;;;;;;;;;;5055127;28;20256;-66
2022/07/07 01:14:30;;;;;;;3.63;2.63;;;;;;;;;;5056456;28;20211;-63
2022/07/07 01:16:56;;;;;;;3.27;2.40;;;;;;;;;;5056227;28;20579;-66
2022/07/07 01:19:23;;;;;;;2.53;2.33;;;;;;;;;;5055083;28;20181;-66
2022/07/07 01:21:53;;;;;;;2.87;2.33;;;;;;;;;;5057125;28;20198;-66
2022/07/07 01:24:20;;;;;;;5.67;2.50;;;;;;;;;;5056991;28;20240;-66
2022/07/07 01:26:46;;;;;;;4.17;2.70;;;;;;;;;;5057024;28;20201;-66
2022/07/07 01:29:12;;;;;;;3.07;2.83;;;;;;;;;;5055001;28;20179;-68
2022/07/07 01:31:38;;;;;;;3.83;2.50;;;;;;;;;;5056543;28;20654;-67
2022/07/07 01:34:04;;;;;;;4.37;3.60;;;;;;;;;;5056127;28;20579;-65
2022/07/07 01:36:30;;;;;;;3.43;3.10;;;;;;;;;;5055829;28;20197;-66
2022/07/07 01:38:56;;;;;;;4.83;3.03;;;;;;;;;;5055900;28;20635;-65
2022/07/07 01:41:22;;;;;;;6.03;3.30;;;;;;;;;;5054168;28;20178;-65
2022/07/07 01:43:48;;;;;;;9.10;3.73;;;;;;;;;;5054352;28;20186;-67
2022/07/07 01:46:14;;;;;;;7.23;3.77;;;;;;;;;;5055786;28;20179;-67
2022/07/07 01:48:41;;;;;;;6.47;4.00;;;;;;;;;;5055596;28;20717;-67
2022/07/07 01:51:06;;;;;;;5.80;3.90;;;;;;;;;;5055465;28;20178;-67
2022/07/07 01:53:32;;;;;;;7.13;4.40;;;;;;;;;;5054170;28;20279;-68
2022/07/07 01:56:05;;;;;;;4.23;3.70;;;;;;;;;;5055473;28;20182;-68
2022/07/07 01:58:31;;;;;;;4.70;3.60;;;;;;;;;;5054992;28;20210;-68
2022/07/07 02:00:57;;;;;;;5.40;4.10;;;;;;;;;;5055058;28;20178;-66
2022/07/07 02:03:23;;;;;;;8.00;3.90;;;;;;;;;;5055059;28;20286;-62
2022/07/07 02:05:49;;;;;;;5.30;3.90;;;;;;;;;;5055316;28;20228;-66
2022/07/07 02:08:15;;;;;;;4.77;3.77;;;;;;;;;;5055053;28;20182;-66
2022/07/07 02:13:25;;;;;;;4.77;3.80;;;;;;;;;;5054980;28;20293;-67
2022/07/07 02:15:51;;;;;;;4.97;4.30;;;;;;;;;;5053780;28;20222;-67
2022/07/07 02:18:17;;;;;;;5.57;4.07;;;;;;;;;;5055339;28;20578;-66
2022/07/07 02:20:43;;;;;;;4.97;3.90;;;;;;;;;;5053569;28;20181;-68
2022/07/07 02:23:09;;;;;;;4.47;3.73;;;;;;;;;;5054699;28;20237;-64
2022/07/07 02:25:35;;;;;;;4.50;3.70;;;;;;;;;;5054680;28;20686;-67
2022/07/07 02:28:01;;;;;;;4.63;3.50;;;;;;;;;;5053535;28;20206;-68
2022/07/07 02:30:27;;;;;;;4.30;3.67;;;;;;;;;;5054943;28;20185;-67
2022/07/07 02:32:53;;;;;;;4.67;3.83;;;;;;;;;;5053232;28;20203;-67
2022/07/07 02:35:20;;;;;;;4.30;3.90;;;;;;;;;;5053386;28;20178;-67
2022/07/07 02:37:46;;;;;;;5.30;4.10;;;;;;;;;;5055081;28;20203;-68
2022/07/07 02:40:12;;;;;;;5.57;4.00;;;;;;;;;;5053256;28;20558;-67
2022/07/07 02:42:38;;;;;;;4.20;3.80;;;;;;;;;;5052092;28;20702;-68
2022/07/07 02:45:04;;;;;;;7.37;4.60;;;;;;;;;;5054272;28;20259;-67
2022/07/07 02:47:30;;;;;;;3.87;3.47;;;;;;;;;;5054368;28;20249;-67
2022/07/07 02:49:56;;;;;;;5.43;4.00;;;;;;;;;;5054492;28;20654;-68
2022/07/07 02:52:22;;;;;;;6.70;4.40;;;;;;;;;;5054663;28;20336;-65
2022/07/07 02:54:48;;;;;;;5.93;4.30;;;;;;;;;;5052898;28;20542;-64
2022/07/07 02:57:13;;;;;;;7.00;3.73;;;;;;;;;;5053945;28;20207;-67
2022/07/07 02:59:39;;;;;;;4.43;3.57;;;;;;;;;;5054027;28;20202;-67
2022/07/07 03:02:05;;;;;;;5.83;3.30;;;;;;;;;;5054267;28;20564;-67
2022/07/07 03:04:31;;;;;;;5.33;3.67;;;;;;;;;;5054156;28;20217;-67
2022/07/07 03:06:57;;;;;;;4.27;3.87;;;;;;;;;;5054103;28;20178;-68
2022/07/07 03:09:23;;;;;;;5.17;4.07;;;;;;;;;;5052721;28;20249;-67
2022/07/07 03:11:49;;;;;;;4.50;3.60;;;;;;;;;;5054363;28;20666;-65
2022/07/07 03:14:15;;;;;;;3.80;3.50;;;;;;;;;;5052627;28;20190;-67
2022/07/07 03:16:41;;;;;;;4.53;3.80;;;;;;;;;;5053715;28;20174;-67
2022/07/07 03:19:07;;;;;;;5.40;4.13;;;;;;;;;;5053912;28;20182;-67
2022/07/07 03:21:33;;;;;;;4.03;3.40;;;;;;;;;;5053757;28;20260;-67
2022/07/07 03:23:59;;;;;;;4.67;3.30;;;;;;;;;;5053602;28;20643;-67
2022/07/07 03:26:25;;;;;;;4.80;3.87;;;;;;;;;;5052247;28;20174;-67
2022/07/07 03:28:51;;;;;;;4.37;3.50;;;;;;;;;;5073502;22;20688;-66
2022/07/07 03:31:17;;;;;;;4.33;3.50;;;;;;;;;;5032813;28;20635;-67
2022/07/07 03:33:43;;;;;;;5.20;3.90;;;;;;;;;;5033987;28;20577;-67
2022/07/07 03:36:09;;;;;;;4.73;3.80;;;;;;;;;;5034332;28;20186;-67
2022/07/07 03:38:35;;;;;;;5.10;3.63;;;;;;;;;;5032339;28;20586;-66
2022/07/07 03:41:01;;;;;;;4.00;3.40;;;;;;;;;;5035019;28;20175;-66
2022/07/07 03:43:27;;;;;;;4.13;3.63;;;;;;;;;;5033087;28;20186;-66
2022/07/07 03:45:54;;;;;;;5.03;3.63;;;;;;;;;;5036308;28;20194;-66
2022/07/07 03:48:19;;;;;;;4.80;3.70;;;;;;;;;;5035023;28;20190;-66
2022/07/07 03:50:45;;;;;;;5.07;3.80;;;;;;;;;;5036840;28;20183;-67
2022/07/07 03:53:11;;;;;;;4.23;3.70;;;;;;;;;;5033934;28;20193;-66
2022/07/07 03:55:37;;;;;;;6.10;3.97;;;;;;;;;;5034945;28;20635;-66
2022/07/07 03:58:03;;;;;;;5.83;4.13;;;;;;;;;;5032704;28;20572;-67
2022/07/07 04:00:29;;;;;;;5.47;3.60;;;;;;;;;;5033531;28;20195;-65
2022/07/07 04:02:56;;;;;;;4.83;4.33;;;;;;;;;;5032291;28;20187;-67
2022/07/07 04:05:21;;;;;;;5.03;3.97;;;;;;;;;;5034008;28;20538;-67
2022/07/07 04:07:47;;;;;;;5.57;4.57;;;;;;;;;;5033397;28;20175;-67
2022/07/07 04:10:13;;;;;;;7.60;4.30;;;;;;;;;;5033349;28;20217;-65
2022/07/07 04:12:39;;;;;;;4.93;4.17;;;;;;;;;;5033345;28;20639;-66
2022/07/07 04:15:06;;;;;;;5.50;4.43;;;;;;;;;;5033486;28;20183;-67
2022/07/07 04:17:31;;;;;;;4.30;3.90;;;;;;;;;;5033764;28;20264;-65
2022/07/07 04:19:58;;;;;;;6.47;5.03;;;;;;;;;;5033312;28;20195;-64
2022/07/07 04:22:24;;;;;;;8.67;3.73;;;;;;;;;;5033458;28;20201;-67
2022/07/07 04:24:50;;;;;;;6.73;4.40;;;;;;;;;;5033322;28;20587;-66
2022/07/07 04:27:16;;;;;;;4.57;4.00;;;;;;;;;;5032129;28;20230;-67
2022/07/07 04:29:42;;;;;;;4.60;4.20;;;;;;;;;;5031943;28;20310;-65
2022/07/07 04:32:09;;;;;;;4.93;4.43;;;;;;;;;;5033865;28;20179;-66
2022/07/07 04:34:35;;;;;;;5.23;4.50;;;;;;;;;;5032333;28;20195;-65
2022/07/07 04:37:00;;;;;;;4.97;4.47;;;;;;;;;;5034304;28;20202;-65
2022/07/07 04:39:27;;;;;;;6.93;4.70;;;;;;;;;;5033547;28;20196;-66
2022/07/07 04:41:53;;;;;;;5.70;5.20;;;;;;;;;;5036364;28;20651;-66
2022/07/07 04:44:19;;;;;;;8.90;5.40;;;;;;;;;;5035616;28;20183;-67
2022/07/07 04:46:45;;;;;;;6.57;5.27;;;;;;;;;;5035653;28;20616;-67
2022/07/07 04:49:11;;;;;;;6.90;5.50;;;;;;;;;;5034389;28;20195;-64
2022/07/07 04:51:37;;;;;;;7.53;6.27;;;;;;;;;;5033636;28;20179;-66
2022/07/07 04:54:03;;;;;;;7.37;6.03;;;;;;;;;;5034722;28;20167;-67
2022/07/07 04:56:29;;;;;;;5.83;5.13;;;;;;;;;;5034831;28;20175;-66
2022/07/07 04:58:55;;;;;;;7.07;5.83;;;;;;;;;;5033134;28;20215;-65
2022/07/07 05:01:21;;;;;;;6.67;5.50;;;;;;;;;;5034776;28;20546;-66
2022/07/07 05:03:47;;;;;;;6.07;5.20;;;;;;;;;;5035128;28;20185;-65
2022/07/07 05:06:13;;;;;;;6.77;5.00;;;;;;;;;;5037414;28;20190;-66
2022/07/07 05:08:40;;;;;;;7.70;4.00;;;;;;;;;;5036598;28;20548;-64
2022/07/07 05:11:06;;;;;;;4.57;4.17;;;;;;;;;;5036549;28;20247;-66
2022/07/07 05:13:32;;;;;;;6.00;4.40;;;;;;;;;;5037651;28;20549;-67
2022/07/07 05:15:58;;;;;;;4.87;3.83;;;;;;;;;;5037217;28;20190;-66
2022/07/07 05:18:24;;;;;;;3.93;3.63;;;;;;;;;;5036829;28;20206;-68
2022/07/07 05:20:50;;;;;;;5.63;3.87;;;;;;;;;;5037230;28;20180;-66
2022/07/07 05:23:16;;;;;;;3.90;3.60;;;;;;;;;;5037108;28;20175;-66
2022/07/07 05:25:41;;;;;;;3.93;3.60;;;;;;;;;;5037197;28;20531;-66
2022/07/07 05:28:07;;;;;;;3.53;3.23;;;;;;;;;;5037081;28;20555;-66
2022/07/07 05:30:33;;;;;;;4.43;3.10;;;;;;;;;;5036828;28;20571;-66
2022/07/07 05:32:59;;;;;;;3.40;3.20;;;;;;;;;;5035619;28;20643;-66
2022/07/07 05:35:25;;;;;;;5.87;3.50;;;;;;;;;;5035752;28;20187;-66
2022/07/07 05:37:51;;;;;;;3.57;3.27;;;;;;;;;;5036523;28;20203;-66
2022/07/07 05:40:17;;;;;;;5.27;3.40;;;;;;;;;;5036572;28;20282;-66
2022/07/07 05:42:43;;;;;;;3.33;3.10;;;;;;;;;;5036927;28;20175;-66
2022/07/07 05:45:10;;;;;;;3.70;3.30;;;;;;;;;;5035088;28;20628;-66
2022/07/07 05:47:36;;;;;;;7.03;3.50;;;;;;;;;;5035244;28;20194;-66
2022/07/07 05:50:02;;;;;;;4.27;3.87;;;;;;;;;;5036673;28;20199;-65
2022/07/07 05:52:28;;;;;;;4.00;3.70;;;;;;;;;;5036283;28;20194;-66
2022/07/07 05:54:56;;;;;;;6.40;3.60;;;;;;;;;;5036682;28;20179;-66
2022/07/07 05:57:22;;;;;;;7.00;3.80;;;;;;;;;;5036567;28;20651;-65
2022/07/07 05:59:48;;;;;;;5.93;3.80;;;;;;;;;;5036206;28;20199;-65
2022/07/07 06:02:14;;;;;;;3.87;3.40;;;;;;;;;;5036295;28;20174;-65
2022/07/07 06:04:40;;;;;;;5.97;4.37;;;;;;;;;;5036696;28;20175;-66
2022/07/07 06:07:06;;;;;;;6.03;4.30;;;;;;;;;;5036155;28;20187;-66
2022/07/07 06:09:32;;;;;;;3.80;3.30;;;;;;;;;;5036319;28;20651;-65
2022/07/07 06:11:58;;;;;;;5.43;3.73;;;;;;;;;;5036786;28;20183;-64
2022/07/07 06:14:24;;;;;;;7.00;3.60;;;;;;;;;;5036380;28;20194;-66
2022/07/07 06:16:50;;;;;;;3.77;3.40;;;;;;;;;;5035833;28;20622;-67
2022/07/07 06:19:17;;;;;;;4.50;3.50;;;;;;;;;;5035964;28;20659;-64
2022/07/07 06:21:43;;;;;;;3.10;2.90;;;;;;;;;;5037223;28;20182;-67
2022/07/07 06:24:10;;;;;;;3.47;3.17;;;;;;;;;;5036666;28;20258;-66
2022/07/07 06:26:36;;;;;;;3.97;3.27;;;;;;;;;;5035859;28;20185;-65
2022/07/07 06:29:02;;;;;;;2.93;2.63;;;;;;;;;;5034446;28;20215;-66
2022/07/07 06:31:28;;;;;;;5.17;3.50;;;;;;;;;;5036621;28;20197;-66
2022/07/07 06:33:54;;;;;;;4.63;2.97;;;;;;;;;;5037220;28;20171;-64
2022/07/07 06:36:20;;;;;;;4.07;3.03;;;;;;;;;;5036614;28;20595;-66
2022/07/07 06:38:46;;;;;;;3.20;2.40;;;;;;;;;;5036895;28;20215;-66
2022/07/07 06:41:12;;;;;;;3.97;2.23;;;;;;;;;;5038043;28;20674;-66
2022/07/07 06:43:38;;;;;;;4.43;2.63;;;;;;;;;;5039937;28;20190;-67
2022/07/07 06:46:04;;;;;;;2.90;2.10;;;;;;;;;;5049721;28;20177;-65
2022/07/07 06:48:30;;;;;;;4.60;2.20;;;;;;;;;;5048138;28;20179;-65
2022/07/07 06:50:56;;;;;;;2.20;2.10;;;;;;;;;;5049053;28;20701;-65
2022/07/07 06:53:23;;;;;;;2.20;2.00;;;;;;;;;;5038121;28;20262;-64
2022/07/07 06:55:48;;;;;;;3.90;2.40;;;;;;;;;;5034164;28;20187;-66
2022/07/07 06:58:14;;;;;;;1.97;1.53;;;;;;;;;;5033759;28;20272;-65
2022/07/07 07:00:40;;;;;;;1.60;1.33;;;;;;;;;;5035662;28;20214;-65
2022/07/07 07:03:06;;;;;;;1.30;1.20;;;;;;;;;;5034899;28;20190;-66
2022/07/07 07:05:32;;;;;;;2.77;1.30;;;;;;;;;;5033627;28;20175;-65
2022/07/07 07:07:58;;;;;;;2.33;1.07;;;;;;;;;;5035176;28;20221;-66
2022/07/07 07:10:24;;;;;;;2.10;1.37;;;;;;;;;;5034994;28;20222;-66
2022/07/07 07:12:50;;;;;;;4.63;1.30;;;;;;;;;;5034980;28;20182;-66
2022/07/07 07:15:16;;;;;;;3.13;1.30;;;;;;;;;;5035060;28;20557;-66
2022/07/07 07:17:42;;;;;;;2.57;1.20;;;;;;;;;;5033586;28;20210;-66
2022/07/07 07:20:09;;;;;;;3.50;1.30;;;;;;;;;;5034595;28;20201;-65
2022/07/07 07:22:41;;;;;;;2.83;1.30;;;;;;;;;;5034597;28;20705;-66
2022/07/07 07:25:08;;;;;;;3.00;1.40;;;;;;;;;;5034281;28;20182;-66
2022/07/07 07:27:34;;;;;;;5.23;1.57;;;;;;;;;;5034596;28;20210;-66
2022/07/07 07:30:01;;;;;;;5.47;1.73;;;;;;;;;;5033181;28;20687;-66
2022/07/07 07:32:27;;;;;;;4.17;1.60;;;;;;;;;;5032435;28;20183;-67
2022/07/07 07:34:53;;;;;;;4.90;1.53;;;;;;;;;;5033501;28;20185;-67
2022/07/07 07:37:18;;;;;;;4.10;1.60;;;;;;;;;;5034119;28;20211;-67
2022/07/07 07:39:44;;;;;;;4.07;1.43;;;;;;;;;;5033913;28;20198;-67
2022/07/07 07:42:10;;;;;;;4.33;1.60;;;;;;;;;;5034807;28;20233;-67
2022/07/07 07:47:21;;;;;;;3.33;1.40;;;;;;;;;;5034128;28;20210;-66
2022/07/07 07:49:47;;;;;;;5.87;1.93;;;;;;;;;;5033430;28;20203;-67
2022/07/07 07:52:13;;;;;;;2.20;1.27;;;;;;;;;;5034005;28;20233;-67
2022/07/07 07:54:39;;;;;;;5.67;1.70;;;;;;;;;;5034133;28;20185;-67
2022/07/07 07:57:05;;;;;;;5.53;1.97;;;;;;;;;;5033698;28;20203;-67
2022/07/07 07:59:31;;;;;;;4.43;2.10;;;;;;;;;;5034915;28;20195;-67
2022/07/07 08:01:57;;;;;;;3.90;1.57;;;;;;;;;;5035179;28;20550;-67
2022/07/07 08:04:23;;;;;;;1.67;1.10;;;;;;;;;;5034787;28;20182;-67
2022/07/07 08:06:49;;;;;;;3.63;1.20;;;;;;;;;;5032610;28;20186;-67
2022/07/07 08:09:14;;;;;;;5.87;1.33;;;;;;;;;;5033469;28;20206;-64
2022/07/07 08:11:40;;;;;;;2.10;1.27;;;;;;;;;;5032289;28;20644;-65
2022/07/07 08:14:06;;;;;;;2.57;1.10;;;;;;;;;;5033629;28;20183;-66
2022/07/07 08:16:32;;;;;;;7.20;1.30;;;;;;;;;;5031881;28;20181;-67
2022/07/07 08:18:58;;;;;;;2.53;1.30;;;;;;;;;;5031760;28;20215;-67
2022/07/07 08:21:24;;;;;;;3.47;1.97;;;;;;;;;;5032994;28;20656;-67
2022/07/07 08:23:50;;;;;;;2.87;1.40;;;;;;;;;;5033015;28;20550;-67
2022/07/07 08:26:16;;;;;;;2.47;1.20;;;;;;;;;;5033046;28;20523;-67
2022/07/07 08:28:42;;;;;;;3.63;1.60;;;;;;;;;;5031631;28;20557;-67
2022/07/07 08:31:08;;;;;;;2.20;1.40;;;;;;;;;;5033136;28;20163;-67
2022/07/07 08:33:35;;;;;;;3.87;1.63;;;;;;;;;;5033236;28;20179;-66
2022/07/07 08:36:01;;;;;;;1.50;1.20;;;;;;;;;;5033341;28;20175;-66
2022/07/07 08:38:27;;;;;;;3.73;1.60;;;;;;;;;;5032960;28;20214;-65
2022/07/07 08:40:53;;;;;;;2.27;1.03;;;;;;;;;;5034612;28;20632;-65
2022/07/07 08:43:19;;;;;;;1.93;1.27;;;;;;;;;;5036798;28;20237;-68
2022/07/07 08:45:46;;;;;;;1.17;1.03;;;;;;;;;;5035419;28;20183;-66
2022/07/07 08:48:12;;;;;;;6.00;1.50;;;;;;;;;;5036696;28;20179;-67
2022/07/07 08:50:38;;;;;;;3.73;1.63;;;;;;;;;;5036606;28;20278;-66
2022/07/07 08:53:04;;;;;;;5.60;1.20;;;;;;;;;;5036711;28;20262;-67
2022/07/07 08:55:32;;;;;;;3.37;1.30;;;;;;;;;;5036399;28;20262;-66
2022/07/07 08:57:58;;;;;;;3.27;1.30;;;;;;;;;;5036285;28;20198;-67
2022/07/07 09:00:25;;;;;;;2.07;1.13;;;;;;;;;;5036430;28;20210;-65
2022/07/07 09:02:55;;;;;;;1.60;1.20;;;;;;;;;;5035115;28;20560;-65
2022/07/07 09:05:21;;;;;;;4.03;1.30;;;;;;;;;;5036804;28;20160;-66
2022/07/07 09:07:48;;;;;;;2.57;1.40;;;;;;;;;;5036396;28;20183;-65
2022/07/07 09:10:28;;;;;;;4.77;1.37;;;;;;;;;;5036037;28;20199;-66
2022/07/07 09:12:54;;;;;;;4.13;1.90;;;;;;;;;;5036529;28;20179;-66
2022/07/07 09:15:20;;;;;;;4.23;1.40;;;;;;;;;;5036098;28;20179;-67
2022/07/07 09:17:46;;;;;;;2.90;1.40;;;;;;;;;;5034730;28;20206;-67
2022/07/07 09:20:12;;;;;;;3.53;1.47;;;;;;;;;;5035928;28;20195;-64
2022/07/07 09:22:51;;;;;;;3.37;1.50;;;;;;;;;;5036072;28;20178;-66
2022/07/07 09:25:27;;;;;;;1.60;1.20;;;;;;;;;;5035765;28;20644;-66
2022/07/07 09:28:03;;;;;;;1.63;1.27;;;;;;;;;;5035732;28;20545;-64
2022/07/07 09:30:31;;;;;;;2.00;1.00;;;;;;;;;;5034456;28;20248;-65
2022/07/07 09:32:57;;;;;;;3.27;1.07;;;;;;;;;;5036286;28;20211;-66
2022/07/07 09:38:13;;;;;;;2.00;1.13;;;;;;;;;;5036150;28;20183;-66
2022/07/07 09:38:13;;;;;;;1.93;1.00;;;;;;;;;;5059649;22;20269;-64
2022/07/07 09:40:49;;;;;;;2.97;1.40;;;;;;;;;;5035649;28;20225;-64
2022/07/07 09:43:15;;;;;;;5.70;1.10;;;;;;;;;;5035736;28;20155;-64
2022/07/07 09:45:41;;;;;;;2.73;1.10;;;;;;;;;;5035284;28;20175;-65
2022/07/07 09:48:10;;;;;;;1.70;1.00;;;;;;;;;;5035545;28;20203;-65
2022/07/07 09:50:36;;;;;;;1.00;0.90;;;;;;;;;;5035425;28;20650;-65
2022/07/07 09:53:09;;;;;;;2.80;1.30;;;;;;;;;;5017249;28;20187;-65
2022/07/07 09:55:36;;;;;;;1.00;1.00;;;;;;;;;;5035542;28;20163;-65
2022/07/07 09:58:01;;;;;;;1.57;1.10;;;;;;;;;;5034844;28;20207;-65
2022/07/07 10:00:27;;;;;;;1.33;1.23;;;;;;;;;;5035256;28;20175;-65
2022/07/07 10:02:54;;;;;;;1.47;1.10;;;;;;;;;;5017237;28;20302;-65
2022/07/07 10:05:21;;;;;;;3.23;1.30;;;;;;;;;;5035403;28;20166;-65
2022/07/07 10:07:48;;;;;;;1.10;1.00;;;;;;;;;;5035124;28;20207;-65
2022/07/07 10:10:14;;;;;;;2.70;1.13;;;;;;;;;;5017216;28;20183;-65
2022/07/07 10:12:44;;;;;;;1.80;1.10;;;;;;;;;;5035114;28;20237;-65
2022/07/07 10:15:13;;;;;;;2.10;1.30;;;;;;;;;;5017334;28;20628;-65
2022/07/07 10:17:40;;;;;;;1.33;1.13;;;;;;;;;;5016851;28;20273;-65
2022/07/07 10:20:06;;;;;;;2.53;1.23;;;;;;;;;;5016938;28;20262;-65
2022/07/07 10:22:33;;;;;;;1.30;1.20;;;;;;;;;;5016949;28;20183;-65
2022/07/07 10:25:02;;;;;;;1.47;1.13;;;;;;;;;;5034670;28;20175;-65
2022/07/07 10:27:30;;;;;;;4.33;1.20;;;;;;;;;;5016713;28;20209;-65
2022/07/07 10:29:57;;;;;;;2.77;1.30;;;;;;;;;;5034604;28;20183;-65
2022/07/07 10:32:51;;;;;;;2.40;1.30;;;;;;;;;;5034757;28;20262;-65
2022/07/07 10:35:18;;;;;;;2.60;1.30;;;;;;;;;;5034560;28;20679;-65
2022/07/07 10:37:45;;;;;;;4.23;1.50;;;;;;;;;;5034120;28;20257;-64
2022/07/07 10:40:13;;;;;;;4.70;1.63;;;;;;;;;;5034331;28;20179;-65
2022/07/07 10:42:38;;;;;;;3.30;1.53;;;;;;;;;;5034352;28;20262;-65
2022/07/07 10:45:05;;;;;;;1.93;1.20;;;;;;;;;;5034312;28;20207;-65
2022/07/07 10:47:35;;;;;;;2.33;1.10;;;;;;;;;;5016362;28;20579;-65
2022/07/07 10:50:01;;;;;;;3.17;1.13;;;;;;;;;;5034469;28;20179;-66
2022/07/07 10:52:28;;;;;;;1.60;0.90;;;;;;;;;;5034371;28;20241;-65
2022/07/07 10:54:59;;;;;;;3.13;1.20;;;;;;;;;;5034227;28;20186;-65
2022/07/07 10:57:26;;;;;;;3.00;1.30;;;;;;;;;;5033787;28;20203;-65
2022/07/07 11:00:00;;;;;;;1.83;1.13;;;;;;;;;;5033902;28;20643;-65
2022/07/07 11:02:32;;;;;;;3.00;1.10;;;;;;;;;;5033047;28;20179;-65
2022/07/07 11:04:58;;;;;;;1.40;1.30;;;;;;;;;;5033940;28;20179;-65
2022/07/07 11:07:25;;;;;;;3.37;1.20;;;;;;;;;;5033936;28;20283;-64
2022/07/07 11:10:09;;;;;;;1.80;1.33;;;;;;;;;;5033848;28;20179;-65
2022/07/07 11:12:38;;;;;;;1.13;1.00;;;;;;;;;;5033737;28;20186;-65
2022/07/07 11:15:30;;;;;;;2.00;1.30;;;;;;;;;;5015945;28;20703;-65
2022/07/07 11:17:56;;;;;;;3.03;1.20;;;;;;;;;;5034354;28;20207;-65
2022/07/07 11:20:23;;;;;;;1.53;1.20;;;;;;;;;;5015719;28;20210;-65
2022/07/07 11:22:50;;;;;;;1.50;1.20;;;;;;;;;;5033706;28;20233;-65
2022/07/07 11:25:18;;;;;;;1.57;1.30;;;;;;;;;;5033714;28;20221;-64
2022/07/07 11:27:44;;;;;;;1.37;1.03;;;;;;;;;;5033457;28;20702;-65
2022/07/07 11:30:11;;;;;;;1.60;1.37;;;;;;;;;;5033513;28;20651;-65
2022/07/07 11:32:41;;;;;;;1.17;1.03;;;;;;;;;;5034076;28;20233;-65
2022/07/07 11:35:11;;;;;;;1.73;1.10;;;;;;;;;;5033648;28;20179;-65
2022/07/07 11:37:39;;;;;;;2.20;1.30;;;;;;;;;;5033085;28;20223;-65
2022/07/07 11:40:05;;;;;;;1.33;1.10;;;;;;;;;;5015827;28;20544;-65
2022/07/07 11:42:35;;;;;;;1.60;1.10;;;;;;;;;;5033870;28;20179;-65
2022/07/07 11:45:01;;;;;;;1.33;1.20;;;;;;;;;;5033457;28;20167;-65
2022/07/07 11:47:32;;;;;;;2.20;1.13;;;;;;;;;;5033246;28;20282;-64
2022/07/07 11:49:58;;;;;;;1.77;1.03;;;;;;;;;;5015451;28;20719;-65
2022/07/07 11:52:24;;;;;;;1.37;1.20;;;;;;;;;;5015556;28;20207;-65
2022/07/07 11:54:50;;;;;;;2.87;1.40;;;;;;;;;;5033672;28;20175;-65
2022/07/07 11:57:26;;;;;;;1.20;1.10;;;;;;;;;;5032916;28;20203;-62
2022/07/07 11:59:52;;;;;;;1.40;1.30;;;;;;;;;;5033186;28;20159;-63
2022/07/07 12:02:19;;;;;;;1.30;1.20;;;;;;;;;;5032880;28;20708;-65
2022/07/07 12:04:45;;;;;;;1.40;1.30;;;;;;;;;;5033273;28;20179;-64
2022/07/07 12:07:11;;;;;;;1.57;1.23;;;;;;;;;;5015286;28;20670;-64
2022/07/07 12:09:37;;;;;;;3.77;1.30;;;;;;;;;;5033081;28;20236;-65
2022/07/07 12:12:03;;;;;;;2.10;1.03;;;;;;;;;;5033214;28;20179;-64
2022/07/07 12:14:29;;;;;;;1.30;1.10;;;;;;;;;;5035477;28;20266;-65
2022/07/07 12:16:56;;;;;;;1.87;1.40;;;;;;;;;;5036960;28;20361;-65
2022/07/07 12:19:22;;;;;;;1.90;1.20;;;;;;;;;;5037232;28;20171;-64
2022/07/07 12:21:51;;;;;;;1.43;1.10;;;;;;;;;;5037151;28;20174;-64
2022/07/07 12:24:18;;;;;;;1.17;1.00;;;;;;;;;;5037450;28;20183;-65
2022/07/07 12:26:51;;;;;;;2.37;1.20;;;;;;;;;;5036809;28;20608;-64
2022/07/07 12:29:21;;;;;;;3.40;1.40;;;;;;;;;;5036789;28;20174;-64
2022/07/07 12:31:48;;;;;;;1.20;1.10;;;;;;;;;;5019033;28;20237;-64
2022/07/07 12:34:16;;;;;;;4.37;1.30;;;;;;;;;;5036930;28;20263;-62
2022/07/07 12:36:42;;;;;;;3.10;1.40;;;;;;;;;;5018903;28;20528;-61
2022/07/07 12:39:08;;;;;;;4.30;1.43;;;;;;;;;;5036791;28;20203;-64
2022/07/07 12:41:39;;;;;;;2.63;1.20;;;;;;;;;;5036478;28;20179;-65
2022/07/07 12:44:11;;;;;;;3.00;1.33;;;;;;;;;;5019839;28;20171;-65
2022/07/07 12:46:37;;;;;;;1.80;1.40;;;;;;;;;;5036431;28;20658;-64
2022/07/07 12:49:04;;;;;;;3.37;1.20;;;;;;;;;;5018792;28;20183;-64
2022/07/07 12:51:30;;;;;;;3.77;1.57;;;;;;;;;;5036712;28;20191;-64
2022/07/07 12:53:57;;;;;;;3.53;1.30;;;;;;;;;;5036359;28;20183;-64
2022/07/07 12:56:30;;;;;;;2.17;1.23;;;;;;;;;;5036390;28;20233;-62
2022/07/07 12:58:56;;;;;;;3.07;1.47;;;;;;;;;;5036524;28;20195;-64
2022/07/07 13:01:23;;;;;;;1.33;1.10;;;;;;;;;;5036208;28;20674;-64
2022/07/07 13:03:51;;;;;;;1.27;1.13;;;;;;;;;;5036504;28;20542;-64
2022/07/07 13:06:18;;;;;;;1.40;1.30;;;;;;;;;;5018371;28;20185;-64
2022/07/07 13:08:45;;;;;;;1.50;1.40;;;;;;;;;;5018529;28;20581;-64
2022/07/07 13:11:11;;;;;;;3.17;1.40;;;;;;;;;;5036010;28;20218;-64
2022/07/07 13:13:38;;;;;;;1.40;1.30;;;;;;;;;;5036081;28;20179;-64
2022/07/07 13:16:04;;;;;;;1.20;1.07;;;;;;;;;;5035939;28;20179;-63
2022/07/07 13:18:30;;;;;;;2.77;1.20;;;;;;;;;;5035910;28;20203;-64
2022/07/07 13:21:00;;;;;;;1.63;1.20;;;;;;;;;;5036173;28;20283;-64
2022/07/07 13:23:28;;;;;;;1.57;1.10;;;;;;;;;;5035954;28;20179;-64
2022/07/07 13:25:54;;;;;;;2.33;1.13;;;;;;;;;;5035651;28;20179;-65
2022/07/07 13:28:20;;;;;;;1.47;1.33;;;;;;;;;;5035665;28;20211;-63
2022/07/07 13:30:46;;;;;;;3.53;1.10;;;;;;;;;;5035736;28;20187;-64
2022/07/07 13:33:12;;;;;;;1.90;1.27;;;;;;;;;;5035774;28;20175;-65
2022/07/07 13:35:38;;;;;;;1.90;1.30;;;;;;;;;;5035860;28;20183;-65
2022/07/07 13:38:04;;;;;;;3.20;1.40;;;;;;;;;;5035339;28;20264;-63
2022/07/07 13:40:30;;;;;;;2.57;1.50;;;;;;;;;;5036024;28;20233;-63
2022/07/07 13:42:56;;;;;;;1.80;1.50;;;;;;;;;;5035398;28;20652;-65
2022/07/07 13:45:22;;;;;;;2.47;1.43;;;;;;;;;;5035453;28;20183;-66
2022/07/07 13:47:48;;;;;;;1.87;1.40;;;;;;;;;;5035359;28;20290;-63
2022/07/07 13:50:14;;;;;;;2.97;1.30;;;;;;;;;;5035608;28;20179;-64
2022/07/07 13:52:40;;;;;;;2.33;1.30;;;;;;;;;;5017574;28;20186;-64
2022/07/07 13:55:06;;;;;;;4.23;1.40;;;;;;;;;;5017504;28;20281;-63
2022/07/07 13:57:33;;;;;;;1.30;1.20;;;;;;;;;;5034976;28;20211;-63
2022/07/07 14:00:02;;;;;;;1.30;1.20;;;;;;;;;;5035062;28;20547;-64
2022/07/07 14:02:28;;;;;;;2.17;1.67;;;;;;;;;;5034989;28;20551;-63
2022/07/07 14:04:55;;;;;;;3.20;1.60;;;;;;;;;;5035542;28;20175;-63
2022/07/07 14:07:21;;;;;;;3.17;1.20;;;;;;;;;;5017180;28;20206;-63
2022/07/07 14:09:47;;;;;;;1.43;1.30;;;;;;;;;;5035018;28;20210;-64
2022/07/07 14:12:13;;;;;;;2.00;1.50;;;;;;;;;;5034898;28;20211;-64
2022/07/07 14:14:39;;;;;;;2.67;1.60;;;;;;;;;;5035098;28;20266;-64
2022/07/07 14:17:05;;;;;;;1.60;1.50;;;;;;;;;;5016995;28;20206;-63
2022/07/07 14:19:31;;;;;;;3.30;1.73;;;;;;;;;;5034798;28;20179;-63
2022/07/07 14:21:58;;;;;;;3.00;1.80;;;;;;;;;;5016928;28;20175;-64
2022/07/07 14:24:24;;;;;;;3.37;1.60;;;;;;;;;;5034602;28;20719;-63
2022/07/07 14:26:50;;;;;;;4.63;1.90;;;;;;;;;;5016696;28;20620;-63
2022/07/07 14:29:16;;;;;;;3.27;2.17;;;;;;;;;;5034609;28;20230;-63
2022/07/07 14:31:42;;;;;;;2.30;1.40;;;;;;;;;;5034553;28;20183;-64
2022/07/07 14:34:08;;;;;;;7.70;1.83;;;;;;;;;;5034573;28;20175;-63
2022/07/07 14:36:34;;;;;;;2.20;1.70;;;;;;;;;;5016096;28;20217;-62
2022/07/07 14:39:00;;;;;;;5.27;2.03;;;;;;;;;;5033882;28;20626;-63
2022/07/07 14:41:28;;;;;;;4.50;2.00;;;;;;;;;;5034517;28;20310;-64
2022/07/07 14:43:54;;;;;;;6.57;2.37;;;;;;;;;;5034415;28;20639;-64
2022/07/07 14:46:20;;;;;;;6.03;2.30;;;;;;;;;;5016500;28;20185;-65